DIAP/ABJ METAR and TAF weather

Enter ICAO airport designator
Station Type Date Time Source
DIAP METAR 2018/07/17 00:00 UTC NOAA

DIAP 170000Z 20004KT 8000 SCT012 25/24 Q1015 NOSIG


Station Type Date Time Source
DIAP Decoded METAR 2018/07/17 00:00 UTC NOAA

Abidjan, Cote d'Ivoire (DIAP) 05-15N 003-56W 8M
Jul 16, 2018 - 08:00 PM EDT / 2018.07.17 0000 UTC
Wind: from the SSW (200 degrees) at 5 MPH (4 KT):0
Visibility: 4 mile(s):0
Sky conditions: partly cloudy
Temperature: 77 F (25 C)
Dew Point: 75 F (24 C)
Relative Humidity: 94%
Pressure (altimeter): 29.97 in. Hg (1015 hPa)
ob: DIAP 170000Z 20004KT 8000 SCT012 25/24 Q1015 NOSIG
cycle: 0

Station Type Date Time Source
DIAP TAF 2018/07/17 00:59 UTC NOAA

TAF DIAP 162300Z 1700/1806 20005KT 8000 SCT012
TEMPO 1705/1710 BKN012
TEMPO 1718/1724 4000 RA BKN012


Example: see airport list